createdAt,value
2023-01-19T00:01:28.115Z,95206.03
2023-01-19T00:03:57.604Z,95217.28
2023-01-19T00:06:26.243Z,95203.56
2023-01-19T00:08:55.638Z,95210.34
2023-01-19T00:11:24.794Z,95184.38
2023-01-19T00:13:53.718Z,95224.50
2023-01-19T00:16:24.087Z,95223.69
2023-01-19T00:18:53.545Z,95213.47
2023-01-19T00:21:23.577Z,95236.00
2023-01-19T00:23:52.757Z,95223.69
2023-01-19T00:26:23.335Z,95234.00
2023-01-19T00:28:53.500Z,95238.88
2023-01-19T00:31:22.082Z,95226.00
2023-01-19T00:33:53.076Z,95244.81
2023-01-19T00:36:21.712Z,95247.09
2023-01-19T00:38:51.207Z,95259.38
2023-01-19T00:41:40.249Z,95248.13
2023-01-19T00:44:07.688Z,95258.13
2023-01-19T00:46:37.964Z,95258.72
2023-01-19T00:49:07.650Z,95258.13
2023-01-19T00:51:36.690Z,95252.81
2023-01-19T00:54:05.798Z,95266.34
2023-01-19T00:56:35.351Z,95266.13
2023-01-19T00:59:05.035Z,95270.03
2023-01-19T01:01:45.022Z,95267.63
2023-01-19T01:04:17.107Z,95259.41
2023-01-19T01:06:45.835Z,95275.38
2023-01-19T01:09:14.166Z,95289.13
2023-01-19T01:11:44.406Z,95286.06
2023-01-19T01:14:14.162Z,95285.66
2023-01-19T01:16:43.130Z,95276.88
2023-01-19T01:19:11.533Z,95296.56
2023-01-19T01:21:41.749Z,95286.56
2023-01-19T01:24:13.050Z,95299.00
2023-01-19T01:26:41.338Z,95313.78
2023-01-19T01:29:09.987Z,95284.47
2023-01-19T01:31:38.380Z,95301.25
2023-01-19T01:34:07.868Z,95300.44
2023-01-19T01:36:36.197Z,95306.16
2023-01-19T01:39:07.065Z,95309.06
2023-01-19T01:41:36.156Z,95290.19
2023-01-19T01:44:25.875Z,95309.28
2023-01-19T01:46:54.432Z,95312.75
2023-01-19T01:49:23.344Z,95312.34
2023-01-19T01:51:54.491Z,95309.50
2023-01-19T01:54:28.460Z,95323.22
2023-01-19T01:57:02.720Z,95320.16
2023-01-19T01:59:39.058Z,95317.91
2023-01-19T02:02:28.209Z,95308.50
2023-01-19T02:05:00.915Z,95321.81
2023-01-19T02:07:54.576Z,95322.03
2023-01-19T02:10:42.088Z,95323.66
2023-01-19T02:13:20.925Z,95328.38
2023-01-19T02:15:50.981Z,95323.47
2023-01-19T02:18:20.909Z,95331.50
2023-01-19T02:20:58.349Z,95321.44
2023-01-19T02:23:44.373Z,95333.53
2023-01-19T02:26:16.347Z,95333.53
2023-01-19T02:28:49.671Z,95334.56
2023-01-19T02:31:18.528Z,95337.44
2023-01-19T02:33:47.271Z,95335.19
2023-01-19T02:36:18.251Z,95337.03
2023-01-19T02:38:49.885Z,95335.38
2023-01-19T02:41:22.730Z,95341.94
2023-01-19T02:43:51.861Z,95333.13
2023-01-19T02:46:20.478Z,95339.72
2023-01-19T02:48:48.847Z,95341.56
2023-01-19T02:51:22.474Z,95343.44
2023-01-19T02:54:28.748Z,95343.66
2023-01-19T02:57:15.577Z,95343.66
2023-01-19T02:59:56.133Z,95339.13
2023-01-19T03:02:36.081Z,95344.69
2023-01-19T03:05:27.944Z,95343.66
2023-01-19T03:08:03.431Z,95346.09
2023-01-19T03:10:42.028Z,95347.94
2023-01-19T03:13:15.921Z,95348.75
2023-01-19T03:15:50.373Z,95353.88
2023-01-19T03:18:23.305Z,95329.28
2023-01-19T03:20:54.435Z,95341.56
2023-01-19T03:23:27.565Z,95347.72
2023-01-19T03:26:00.342Z,95349.38
2023-01-19T03:28:32.652Z,95351.44
2023-01-19T03:31:06.922Z,95341.00
2023-01-19T03:33:39.211Z,95346.75
2023-01-19T03:36:17.679Z,95346.31
2023-01-19T03:38:50.511Z,95344.28
2023-01-19T03:41:23.595Z,95339.38
2023-01-19T03:43:54.865Z,95293.03
2023-01-19T03:46:25.345Z,95337.50
2023-01-19T03:48:55.210Z,95335.44
2023-01-19T03:51:23.639Z,95348.19
2023-01-19T03:53:52.323Z,95343.28
2023-01-19T03:56:24.877Z,95349.22
2023-01-19T03:58:55.061Z,95357.59
2023-01-19T04:01:25.796Z,95354.13
2023-01-19T04:03:54.957Z,95347.34
2023-01-19T04:06:24.264Z,95345.50
2023-01-19T04:08:53.000Z,95343.66
2023-01-19T04:11:23.050Z,95342.44
2023-01-19T04:13:51.678Z,95343.66
2023-01-19T04:16:21.265Z,95347.56
2023-01-19T04:18:50.130Z,95341.63
2023-01-19T04:21:18.463Z,95353.28
2023-01-19T04:23:47.463Z,95351.47
2023-01-19T04:26:15.772Z,95351.47
2023-01-19T04:28:45.516Z,95353.28
2023-01-19T04:31:14.392Z,95354.31
2023-01-19T04:33:42.773Z,95351.88
2023-01-19T04:36:11.511Z,95339.78
2023-01-19T04:38:39.884Z,95350.84
2023-01-19T04:41:08.617Z,95349.19
2023-01-19T04:43:36.952Z,95346.13
2023-01-19T04:46:06.770Z,95337.13
2023-01-19T04:48:35.220Z,95338.16
2023-01-19T04:51:03.552Z,95335.88
2023-01-19T04:53:31.871Z,95342.66
2023-01-19T04:56:01.085Z,95327.03
2023-01-19T04:58:31.055Z,95296.09
2023-01-19T05:00:59.556Z,95356.56
2023-01-19T05:03:29.752Z,95353.50
2023-01-19T05:05:58.068Z,95370.50
2023-01-19T05:08:28.296Z,95370.06
2023-01-19T05:10:57.541Z,95374.97
2023-01-19T05:13:26.381Z,95380.13
2023-01-19T05:15:54.791Z,95379.47
2023-01-19T05:18:23.380Z,95387.47
2023-01-19T05:20:53.060Z,95379.66
2023-01-19T05:23:21.826Z,95396.06
2023-01-19T05:25:50.667Z,95392.59
2023-01-19T05:28:21.179Z,95388.09
2023-01-19T05:30:50.830Z,95396.47
2023-01-19T05:33:19.210Z,95405.09
2023-01-19T05:35:51.096Z,95405.50
2023-01-19T05:38:34.350Z,95366.09
2023-01-19T05:41:04.543Z,95412.66
2023-01-19T05:43:33.822Z,95411.22
2023-01-19T05:46:02.121Z,95410.41
2023-01-19T05:48:31.388Z,95414.28
2023-01-19T05:51:00.027Z,95415.31
2023-01-19T05:53:30.739Z,95420.63
2023-01-19T05:56:02.778Z,95419.41
2023-01-19T05:58:32.315Z,95420.63
2023-01-19T06:01:06.661Z,95422.91
2023-01-19T06:03:36.249Z,95427.22
2023-01-19T06:06:05.675Z,95422.28
2023-01-19T06:08:35.393Z,95431.75
2023-01-19T06:11:07.443Z,95428.06
2023-01-19T06:13:36.059Z,95360.31
2023-01-19T06:16:04.542Z,95443.41
2023-01-19T06:18:34.156Z,95442.59
2023-01-19T06:21:05.071Z,95446.50
2023-01-19T06:23:37.185Z,95455.31
2023-01-19T06:26:05.830Z,95454.47
2023-01-19T06:28:34.165Z,95459.38
2023-01-19T06:31:03.065Z,95469.19
2023-01-19T06:33:31.521Z,95464.06
2023-01-19T06:36:01.260Z,95471.22
2023-01-19T06:38:29.707Z,95445.53
2023-01-19T06:40:59.778Z,95453.34
2023-01-19T06:43:28.377Z,95469.16
2023-01-19T06:45:57.261Z,95465.84
2023-01-19T06:48:25.792Z,95481.47
2023-01-19T06:50:54.830Z,95476.72
2023-01-19T06:53:23.168Z,95480.81
2023-01-19T06:55:51.956Z,95489.63
2023-01-19T06:58:22.227Z,95495.78
2023-01-19T07:00:51.861Z,95477.06
2023-01-19T07:03:23.711Z,95471.75
2023-01-19T07:05:53.423Z,95458.97
2023-01-19T07:08:22.053Z,95496.56
2023-01-19T07:11:24.659Z,95489.34
2023-01-19T07:13:42.947Z,95502.25
2023-01-19T07:16:14.615Z,95511.72
2023-01-19T07:18:43.252Z,95506.97
2023-01-19T07:21:11.569Z,95518.44
2023-01-19T07:23:39.952Z,95516.78
2023-01-19T07:26:08.242Z,95518.63
2023-01-19T07:28:37.329Z,95520.88
2023-01-19T07:31:07.735Z,95513.09
2023-01-19T07:33:36.174Z,95497.88
2023-01-19T07:36:05.375Z,95521.72
2023-01-19T07:38:33.672Z,95522.13
2023-01-19T07:41:03.205Z,95512.69
2023-01-19T07:43:31.910Z,95516.19
2023-01-19T07:46:01.777Z,95499.69
2023-01-19T07:48:31.543Z,95519.66
2023-01-19T07:51:02.120Z,95525.19
2023-01-19T07:53:30.452Z,95523.09
2023-01-19T07:55:59.010Z,95534.38
2023-01-19T07:58:27.777Z,95535.00
2023-01-19T08:00:56.185Z,95537.47
2023-01-19T08:03:25.138Z,95543.41
2023-01-19T08:05:56.978Z,95545.88
2023-01-19T08:08:25.634Z,95551.91
2023-01-19T08:10:54.332Z,95547.41
2023-01-19T08:13:22.645Z,95486.38
2023-01-19T08:15:52.265Z,95552.72
2023-01-19T08:18:21.474Z,95551.47
2023-01-19T08:20:49.794Z,95565.81
2023-01-19T08:23:20.261Z,95568.66
2023-01-19T08:25:48.791Z,95565.81
2023-01-19T08:28:19.376Z,95558.84
2023-01-19T08:30:54.696Z,95572.34
2023-01-19T08:33:25.227Z,95555.94
2023-01-19T08:35:55.171Z,95549.94
2023-01-19T08:38:24.848Z,95568.03
2023-01-19T08:40:53.554Z,95563.75
2023-01-19T08:43:21.846Z,95560.47
2023-01-19T08:45:52.947Z,95575.22
2023-01-19T08:48:25.255Z,95577.88
2023-01-19T08:50:54.039Z,95576.28
2023-01-19T08:53:25.139Z,95567.47
2023-01-19T08:55:59.799Z,95581.84
2023-01-19T08:58:29.038Z,95580.44
2023-01-19T09:00:57.400Z,95579.22
2023-01-19T09:03:26.202Z,95583.38
2023-01-19T09:05:54.532Z,95588.13
2023-01-19T09:08:24.718Z,95580.78
2023-01-19T09:10:53.131Z,95589.22
2023-01-19T09:13:21.738Z,95573.44
2023-01-19T09:15:50.952Z,95573.25
2023-01-19T09:18:21.675Z,95596.84
2023-01-19T09:20:52.120Z,95599.16
2023-01-19T09:23:24.079Z,95590.72
2023-01-19T09:25:57.824Z,95606.09
2023-01-19T09:28:26.375Z,95589.84
2023-01-19T09:30:55.465Z,95601.75
2023-01-19T09:33:24.662Z,95587.72
2023-01-19T09:35:53.511Z,95598.22
2023-01-19T09:38:24.908Z,95607.00
2023-01-19T09:40:55.526Z,95611.94
2023-01-19T09:43:36.763Z,95610.09
2023-01-19T09:46:12.773Z,95602.84
2023-01-19T09:48:45.769Z,95607.34
2023-01-19T09:51:18.629Z,95602.38
2023-01-19T09:53:55.529Z,95598.59
2023-01-19T09:56:25.613Z,95596.47
2023-01-19T09:58:54.371Z,95590.00
2023-01-19T10:01:38.887Z,95599.25
2023-01-19T10:04:26.914Z,95603.75
2023-01-19T10:07:05.144Z,95611.25
2023-01-19T10:09:46.563Z,95603.59
2023-01-19T10:12:30.019Z,95610.78
2023-01-19T10:15:07.924Z,95609.25
2023-01-19T10:17:53.747Z,95579.69
2023-01-19T10:20:46.586Z,95610.66
2023-01-19T10:23:23.382Z,95531.25
2023-01-19T10:27:51.714Z,95599.50
2023-01-19T10:33:55.904Z,95516.53
2023-01-19T10:36:30.627Z,95612.34
2023-01-19T10:38:59.342Z,95582.34
2023-01-19T10:41:40.327Z,95584.66
2023-01-19T10:44:24.296Z,95574.47
2023-01-19T10:46:59.404Z,95524.50
2023-01-19T10:52:54.243Z,95568.59
2023-01-19T10:55:35.196Z,95552.22
2023-01-19T10:58:33.283Z,95509.81
2023-01-19T11:01:16.218Z,95584.28
2023-01-19T11:03:45.919Z,95600.44
2023-01-19T11:06:35.531Z,95547.94
2023-01-19T11:09:13.874Z,95593.56
2023-01-19T11:11:56.190Z,95583.75
2023-01-19T11:14:43.683Z,95584.94
2023-01-19T11:18:04.448Z,95495.41
2023-01-19T11:21:00.943Z,95563.34
2023-01-19T11:24:10.465Z,95571.22
2023-01-19T11:26:47.855Z,95587.78
2023-01-19T11:29:36.502Z,95537.38
2023-01-19T11:32:37.459Z,95520.63
2023-01-19T11:38:58.907Z,95540.88
2023-01-19T11:41:29.912Z,95522.25
2023-01-19T11:44:31.426Z,95482.06
2023-01-19T11:47:35.095Z,95569.38
2023-01-19T11:50:27.533Z,95572.56
2023-01-19T11:53:07.394Z,95562.16
2023-01-19T11:55:47.842Z,95485.06
2023-01-19T11:58:40.222Z,95490.69
2023-01-19T12:01:32.622Z,95538.06
2023-01-19T12:04:15.990Z,95530.13
2023-01-19T12:06:53.720Z,95477.06
2023-01-19T12:09:35.076Z,95517.75
2023-01-19T12:12:27.916Z,95502.75
2023-01-19T12:16:08.032Z,95488.84
2023-01-19T12:18:56.307Z,95515.66
2023-01-19T12:21:35.746Z,95516.78
2023-01-19T12:24:43.597Z,95547.50
2023-01-19T12:27:30.450Z,95494.19
2023-01-19T12:30:02.292Z,95544.19
2023-01-19T12:32:44.128Z,95550.78
2023-01-19T12:35:46.704Z,95542.34
2023-01-19T12:38:37.293Z,95544.28
2023-01-19T12:41:21.364Z,95537.75
2023-01-19T12:44:06.408Z,95540.41
2023-01-19T12:46:34.961Z,95534.44
2023-01-19T12:49:06.601Z,95537.72
2023-01-19T12:51:35.148Z,95539.06
2023-01-19T12:54:21.053Z,95539.06
2023-01-19T12:56:50.621Z,95543.84
2023-01-19T12:59:26.572Z,95537.50
2023-01-19T13:02:34.580Z,95535.81
2023-01-19T13:05:15.947Z,95531.44
2023-01-19T13:08:23.731Z,95543.50
2023-01-19T13:11:21.047Z,95537.88
2023-01-19T13:14:28.311Z,95544.00
2023-01-19T13:17:18.298Z,95531.50
2023-01-19T13:19:58.310Z,95535.31
2023-01-19T13:23:03.667Z,95537.66
2023-01-19T13:25:35.490Z,95540.75
2023-01-19T13:28:11.967Z,95537.03
2023-01-19T13:30:56.949Z,95536.53
2023-01-19T13:33:29.242Z,95536.09
2023-01-19T13:35:59.469Z,95529.44
2023-01-19T13:38:34.474Z,95524.28
2023-01-19T13:41:13.888Z,95463.19
2023-01-19T13:43:44.602Z,95537.38
2023-01-19T13:46:54.064Z,95539.72
2023-01-19T13:49:30.729Z,95543.66
2023-01-19T13:52:07.206Z,95533.72
2023-01-19T13:54:36.143Z,95534.59
2023-01-19T13:57:05.185Z,95507.78
2023-01-19T13:59:36.584Z,95539.84
2023-01-19T14:02:14.722Z,95531.97
2023-01-19T14:04:47.355Z,95475.28
2023-01-19T14:07:26.272Z,95508.63
2023-01-19T14:10:05.155Z,95520.97
2023-01-19T14:12:35.977Z,95498.00
2023-01-19T14:15:14.064Z,95533.22
2023-01-19T14:17:43.834Z,95538.84
2023-01-19T14:20:30.707Z,95549.28
2023-01-19T14:22:59.948Z,95540.88
2023-01-19T14:25:31.638Z,95553.16
2023-01-19T14:28:31.026Z,95562.78
2023-01-19T14:31:03.475Z,95547.44
2023-01-19T14:33:37.097Z,95563.66
2023-01-19T14:36:25.877Z,95552.09
2023-01-19T14:38:57.043Z,95483.72
2023-01-19T14:41:30.103Z,95477.59
2023-01-19T14:44:01.538Z,95542.31
2023-01-19T14:46:31.471Z,95558.56
2023-01-19T14:49:04.188Z,95564.34
2023-01-19T14:51:33.308Z,95546.69
2023-01-19T14:54:03.582Z,95564.25
2023-01-19T14:56:34.104Z,95553.16
2023-01-19T14:59:03.720Z,95565.78
2023-01-19T15:01:36.003Z,95563.00
2023-01-19T15:04:04.562Z,95563.59
2023-01-19T15:06:35.512Z,95536.09
2023-01-19T15:09:04.255Z,95548.91
2023-01-19T15:11:36.027Z,95572.50
2023-01-19T15:14:04.909Z,95563.91
2023-01-19T15:16:37.732Z,95583.47
2023-01-19T15:19:12.497Z,95578.63
2023-01-19T15:21:42.355Z,95574.97
2023-01-19T15:24:11.793Z,95572.34
2023-01-19T15:26:42.070Z,95579.78
2023-01-19T15:29:23.947Z,95569.56
2023-01-19T15:31:54.211Z,95521.59
2023-01-19T15:34:22.610Z,95579.81
2023-01-19T15:36:52.970Z,95533.09
2023-01-19T15:39:21.879Z,95583.78
2023-01-19T15:41:50.317Z,95578.84
2023-01-19T15:44:19.650Z,95569.84
2023-01-19T15:46:48.113Z,95583.03
2023-01-19T15:49:18.603Z,95589.19
2023-01-19T15:51:47.669Z,95587.53
2023-01-19T15:54:17.469Z,95578.06
2023-01-19T15:56:46.513Z,95591.59
2023-01-19T15:59:15.138Z,95581.50
2023-01-19T16:01:44.370Z,95586.00
2023-01-19T16:04:13.223Z,95588.06
2023-01-19T16:06:43.572Z,95581.34
2023-01-19T16:09:17.276Z,95584.50
2023-01-19T16:11:46.076Z,95571.19
2023-01-19T16:14:17.349Z,95596.84
2023-01-19T16:16:46.214Z,95575.31
2023-01-19T16:19:16.712Z,95564.63
2023-01-19T16:21:47.007Z,95594.00
2023-01-19T16:24:15.549Z,95587.41
2023-01-19T16:26:46.618Z,95599.28
2023-01-19T16:29:15.859Z,95598.88
2023-01-19T16:31:45.486Z,95607.53
2023-01-19T16:34:15.794Z,95603.84
2023-01-19T16:36:44.124Z,95604.44
2023-01-19T16:39:16.756Z,95611.88
2023-01-19T16:41:48.540Z,95601.19
2023-01-19T16:44:19.242Z,95605.47
2023-01-19T16:46:49.815Z,95605.25
2023-01-19T16:49:21.452Z,95615.16
2023-01-19T16:51:51.155Z,95580.25
2023-01-19T16:54:26.376Z,95616.81
2023-01-19T16:56:56.815Z,95606.56
2023-01-19T16:59:27.441Z,95611.06
2023-01-19T17:01:56.971Z,95611.69
2023-01-19T17:04:26.466Z,95603.25
2023-01-19T17:07:10.232Z,95606.94
2023-01-19T17:09:40.147Z,95606.72
2023-01-19T17:12:10.614Z,95610.88
2023-01-19T17:14:39.968Z,95605.53
2023-01-19T17:17:10.379Z,95602.44
2023-01-19T17:19:40.366Z,95584.41
2023-01-19T17:22:09.525Z,95600.63
2023-01-19T17:24:42.501Z,95611.91
2023-01-19T17:27:13.634Z,95591.16
2023-01-19T17:29:42.320Z,95600.41
2023-01-19T17:32:17.700Z,95616.00
2023-01-19T17:34:51.686Z,95614.38
2023-01-19T17:37:23.437Z,95619.91
2023-01-19T17:39:53.724Z,95614.53
